Time;durP1;ratioP1;P1;durP2;ratioP2;P2;SDS_P1;SDS_P2;PMS_P1;PMS_P2;Temp;Humidity;BMP_temperature;BMP_pressure;BME280_temperature;BME280_humidity;BME280_pressure;Samples;Min_cycle;Max_cycle;Signal;HPM_P1;HPM_P2
2022/08/29 00:00:40;;;;;;;11.83;9.30;;;;;;;18.73;87.84;98312.66;4171908;28;20642;-85
2022/08/29 00:02:43;;;;;;;10.50;9.43;;;;;;;18.73;88.45;98312.66;4172527;28;20611;-85
2022/08/29 00:04:46;;;;;;;9.63;8.63;;;;;;;18.71;87.85;98311.97;4173093;28;20630;-86
2022/08/29 00:06:50;;;;;;;11.60;9.73;;;;;;;18.70;88.40;98307.66;4181092;28;20636;-86
2022/08/29 00:08:53;;;;;;;15.00;9.03;;;;;;;18.64;87.98;98306.47;4176136;28;20666;-85
2022/08/29 00:10:57;;;;;;;10.13;9.10;;;;;;;18.58;88.77;98315.00;4172472;28;20630;-86
2022/08/29 00:13:00;;;;;;;12.00;10.00;;;;;;;18.56;88.97;98311.66;4174917;28;21212;-86
2022/08/29 00:15:05;;;;;;;11.63;9.77;;;;;;;18.55;89.27;98309.16;4161605;28;20627;-86
2022/08/29 00:17:08;;;;;;;11.30;8.80;;;;;;;18.57;89.36;98310.69;4171939;28;20638;-86
2022/08/29 00:19:11;;;;;;;11.73;10.40;;;;;;;18.55;88.72;98309.16;4173790;28;20670;-85
2022/08/29 00:21:14;;;;;;;10.27;9.13;;;;;;;18.54;88.68;98313.63;4174610;28;20633;-86
2022/08/29 00:23:17;;;;;;;15.03;9.80;;;;;;;18.54;88.69;98310.97;4171242;28;20624;-86
2022/08/29 00:25:20;;;;;;;10.20;9.10;;;;;;;18.52;88.95;98315.59;4171577;28;20727;-86
2022/08/29 00:27:25;;;;;;;12.10;9.47;;;;;;;18.48;88.91;98316.84;4161611;28;20630;-86
2022/08/29 00:29:28;;;;;;;14.80;8.50;;;;;;;18.48;89.29;98311.56;4162359;28;20658;-86
2022/08/29 00:31:31;;;;;;;10.37;8.80;;;;;;;18.46;89.34;98310.03;4179093;28;20623;-86
2022/08/29 00:33:35;;;;;;;12.00;9.20;;;;;;;18.42;88.59;98306.88;4175381;28;20638;-85
2022/08/29 00:35:42;;;;;;;10.27;8.57;;;;;;;18.42;88.42;98313.97;4173848;28;20714;-86
2022/08/29 00:37:47;;;;;;;9.40;8.50;;;;;;;18.41;88.73;98318.41;4173792;28;20667;-85
2022/08/29 00:39:50;;;;;;;9.33;8.07;;;;;;;18.41;88.73;98315.75;4172758;28;20651;-86
2022/08/29 00:41:54;;;;;;;9.90;8.90;;;;;;;18.43;88.87;98319.09;4168107;28;20739;-86
2022/08/29 00:43:58;;;;;;;11.40;9.13;;;;;;;18.41;88.35;98316.75;4167739;28;20622;-86
2022/08/29 00:46:09;;;;;;;11.53;9.13;;;;;;;18.40;88.90;98312.44;4189724;28;20629;-85
2022/08/29 00:48:14;;;;;;;11.67;7.93;;;;;;;18.35;89.25;98312.88;4174438;28;21029;-85
2022/08/29 00:50:23;;;;;;;9.90;8.63;;;;;;;18.35;89.51;98309.44;4174164;28;20615;-86
2022/08/29 00:52:31;;;;;;;10.43;8.90;;;;;;;18.33;89.00;98314.84;4172859;28;20633;-85
2022/08/29 00:54:34;;;;;;;9.10;8.20;;;;;;;18.32;88.52;98323.75;4169814;28;20626;-85
2022/08/29 00:56:38;;;;;;;11.73;9.10;;;;;;;18.28;88.77;98321.53;4176515;28;21022;-85
2022/08/29 00:58:44;;;;;;;10.37;8.20;;;;;;;18.24;89.11;98325.47;4177962;28;20625;-86
2022/08/29 01:00:49;;;;;;;11.57;8.67;;;;;;;18.21;89.32;98326.59;4168751;28;21438;-85
2022/08/29 01:02:53;;;;;;;9.57;8.37;;;;;;;18.20;89.17;98321.44;4172631;28;20653;-85
2022/08/29 01:04:56;;;;;;;11.13;9.10;;;;;;;18.15;89.39;98331.63;4176207;28;20687;-85
2022/08/29 01:07:00;;;;;;;12.00;9.73;;;;;;;18.13;88.80;98330.91;4199796;28;20631;-86
2022/08/29 01:09:03;;;;;;;11.53;8.50;;;;;;;18.12;89.27;98329.25;4174598;28;21091;-85
2022/08/29 01:13:33;;;;;;;11.33;9.20;;;;;;;18.07;89.35;98326.19;4171328;28;20722;-86
2022/08/29 01:15:38;;;;;;;13.07;9.40;;;;;;;18.07;89.48;98328.81;4169972;28;20626;-86
2022/08/29 01:17:45;;;;;;;9.33;8.33;;;;;;;18.07;89.70;98334.09;4181301;28;20641;-86
2022/08/29 01:19:55;;;;;;;9.50;8.50;;;;;;;18.06;89.29;98338.56;4173261;28;20622;-85
2022/08/29 01:22:03;;;;;;;12.30;8.70;;;;;;;18.04;89.01;98327.31;4173399;28;20642;-85
2022/08/29 01:24:11;;;;;;;10.47;9.37;;;;;;;18.03;89.51;98340.66;4177576;28;20621;-85
2022/08/29 01:26:16;;;;;;;10.33;9.23;;;;;;;18.00;89.64;98333.03;4169056;28;20641;-86
2022/08/29 01:28:22;;;;;;;11.57;8.70;;;;;;;17.96;89.51;98331.66;4167778;28;20654;-85
2022/08/29 01:30:25;;;;;;;9.70;8.63;;;;;;;17.95;89.92;98333.47;4177246;28;20621;-86
2022/08/29 01:32:28;;;;;;;10.90;9.30;;;;;;;17.94;89.57;98333.59;4178334;28;20621;-85
2022/08/29 01:34:31;;;;;;;9.90;8.53;;;;;;;17.88;89.51;98328.91;4174651;28;20637;-86
2022/08/29 01:36:39;;;;;;;10.23;8.57;;;;;;;17.85;89.75;98334.47;4170989;28;21271;-86
2022/08/29 01:38:42;;;;;;;11.10;8.83;;;;;;;17.82;89.30;98321.56;4174247;28;20626;-85
2022/08/29 01:40:45;;;;;;;12.00;8.90;;;;;;;17.79;89.83;98331.59;4202668;28;20616;-85
2022/08/29 01:42:50;;;;;;;9.07;8.17;;;;;;;17.79;89.97;98337.69;4177595;28;20633;-85
2022/08/29 01:44:55;;;;;;;9.40;8.50;;;;;;;17.77;90.30;98331.72;4173759;28;20641;-85
2022/08/29 01:46:59;;;;;;;11.47;9.00;;;;;;;17.81;89.71;98341.00;4166904;28;20854;-86
2022/08/29 01:49:08;;;;;;;11.30;9.27;;;;;;;17.80;90.18;98334.06;4161215;28;21127;-85
2022/08/29 01:51:13;;;;;;;9.53;8.53;;;;;;;17.80;90.19;98331.44;4174603;28;20638;-85
2022/08/29 01:53:16;;;;;;;11.63;9.30;;;;;;;17.81;90.45;98329.63;4173500;28;20618;-85
2022/08/29 01:55:19;;;;;;;11.90;9.10;;;;;;;17.79;90.22;98332.41;4174512;28;20633;-86
2022/08/29 01:57:22;;;;;;;9.67;8.47;;;;;;;17.77;90.06;98337.00;4172457;28;21299;-86
2022/08/29 01:59:27;;;;;;;10.03;8.93;;;;;;;17.75;90.27;98336.28;4174823;28;20664;-86
2022/08/29 02:01:34;;;;;;;10.73;8.20;;;;;;;17.72;90.31;98331.28;4171542;28;21133;-85
2022/08/29 02:03:37;;;;;;;9.93;8.90;;;;;;;17.71;89.70;98342.00;4177555;28;20613;-86
2022/08/29 02:05:40;;;;;;;9.93;8.60;;;;;;;17.69;90.23;98338.69;4177098;28;20622;-86
2022/08/29 02:07:43;;;;;;;11.33;8.70;;;;;;;17.65;90.46;98335.50;4202478;28;20659;-86
2022/08/29 02:09:46;;;;;;;8.97;7.93;;;;;;;17.61;90.28;98336.75;4157153;28;20657;-86
2022/08/29 02:11:51;;;;;;;10.30;8.50;;;;;;;17.61;90.11;98331.47;4172683;28;20727;-85
2022/08/29 02:13:57;;;;;;;11.67;9.47;;;;;;;17.62;90.30;98342.84;4173785;28;20620;-85
2022/08/29 02:16:02;;;;;;;9.40;8.40;;;;;;;17.60;90.12;98342.97;4173601;28;20767;-85
2022/08/29 02:18:05;;;;;;;11.27;8.00;;;;;;;17.58;90.52;98339.66;4173150;28;21054;-85
2022/08/29 02:20:09;;;;;;;9.80;8.10;;;;;;;17.55;90.54;98332.03;4170964;28;20652;-85
2022/08/29 02:22:12;;;;;;;11.57;8.73;;;;;;;17.51;90.12;98341.22;4180503;28;21019;-85
2022/08/29 02:24:16;;;;;;;9.47;8.40;;;;;;;17.46;89.50;98340.78;4190626;28;20648;-85
2022/08/29 02:26:28;;;;;;;11.60;8.40;;;;;;;17.40;88.87;98343.16;4177598;28;20617;-85
2022/08/29 02:28:32;;;;;;;9.70;8.00;;;;;;;17.34;88.91;98337.63;4206850;28;20705;-86
2022/08/29 02:30:35;;;;;;;9.53;8.57;;;;;;;17.32;90.39;98345.69;4181737;28;20612;-85
2022/08/29 02:32:39;;;;;;;10.17;8.00;;;;;;;17.30;90.54;98352.06;4176508;28;20711;-86
2022/08/29 02:34:44;;;;;;;10.97;8.03;;;;;;;17.28;90.79;98349.56;4161834;28;20669;-86
2022/08/29 02:36:50;;;;;;;8.43;7.53;;;;;;;17.26;89.97;98350.66;4178026;28;21063;-85
2022/08/29 02:38:53;;;;;;;8.90;7.60;;;;;;;17.27;89.96;98350.53;4177440;28;20945;-85
2022/08/29 02:40:57;;;;;;;11.00;8.13;;;;;;;17.28;91.12;98346.91;4178186;28;20625;-85
2022/08/29 02:43:00;;;;;;;12.50;8.67;;;;;;;17.26;90.46;98350.66;4170622;28;20645;-85
2022/08/29 02:45:04;;;;;;;12.03;8.97;;;;;;;17.24;90.94;98353.44;4177391;28;20642;-85
2022/08/29 02:47:08;;;;;;;8.80;8.00;;;;;;;17.17;89.65;98344.41;4170374;28;20667;-85
2022/08/29 02:49:12;;;;;;;10.30;8.50;;;;;;;17.11;90.56;98336.22;4162892;28;20664;-85
2022/08/29 02:51:19;;;;;;;10.73;8.67;;;;;;;17.06;90.26;98327.88;4177834;28;21017;-85
2022/08/29 02:53:25;;;;;;;10.07;8.73;;;;;;;17.01;90.65;98338.84;4177263;28;20685;-86
2022/08/29 02:55:29;;;;;;;12.10;9.27;;;;;;;16.97;90.09;98333.97;4178690;28;20628;-85
2022/08/29 02:57:32;;;;;;;10.33;8.80;;;;;;;16.95;90.46;98333.28;4174364;28;20659;-85
2022/08/29 02:59:35;;;;;;;10.63;8.87;;;;;;;16.93;90.35;98335.25;4170971;28;20613;-85
2022/08/29 03:01:38;;;;;;;10.50;8.83;;;;;;;16.89;89.50;98333.84;4177448;28;20685;-86
2022/08/29 03:03:41;;;;;;;14.37;8.97;;;;;;;16.86;90.65;98335.94;4180057;28;20687;-85
2022/08/29 03:05:46;;;;;;;9.83;8.50;;;;;;;16.81;90.47;98330.22;4176636;28;20631;-85
2022/08/29 03:07:51;;;;;;;10.53;9.43;;;;;;;16.81;90.92;98338.13;4159243;28;20648;-85
2022/08/29 03:09:54;;;;;;;11.13;9.90;;;;;;;16.81;91.22;98332.84;4171559;28;21571;-85
2022/08/29 03:11:57;;;;;;;14.37;8.53;;;;;;;16.81;91.17;98335.47;4173517;28;20636;-86
2022/08/29 03:14:00;;;;;;;11.27;9.30;;;;;;;16.76;91.99;98328.00;4174645;28;20641;-85
2022/08/29 03:16:04;;;;;;;9.37;8.40;;;;;;;16.73;91.59;98333.56;4179283;28;20689;-85
2022/08/29 03:18:08;;;;;;;9.57;8.57;;;;;;;16.72;91.18;98323.97;4163090;28;21009;-85
2022/08/29 03:20:12;;;;;;;12.77;9.67;;;;;;;16.73;90.55;98327.44;4169062;28;20634;-86
2022/08/29 03:22:17;;;;;;;10.27;9.17;;;;;;;16.72;90.79;98323.97;4175524;28;20655;-85
2022/08/29 03:24:20;;;;;;;9.53;8.53;;;;;;;16.71;91.04;98330.22;4174339;28;20634;-85
2022/08/29 03:26:28;;;;;;;11.10;9.77;;;;;;;16.69;90.64;98329.53;4179586;28;20670;-85
2022/08/29 03:28:32;;;;;;;11.10;8.93;;;;;;;16.66;91.87;98335.06;4167878;28;20669;-84
2022/08/29 03:30:35;;;;;;;10.40;8.87;;;;;;;16.67;91.01;98325.34;4175193;28;20659;-85
2022/08/29 03:32:39;;;;;;;13.50;9.60;;;;;;;16.66;91.93;98318.44;4173000;28;20663;-85
2022/08/29 03:34:42;;;;;;;10.60;9.33;;;;;;;16.65;92.50;98333.38;4178011;28;20638;-86
2022/08/29 03:36:45;;;;;;;11.63;8.97;;;;;;;16.66;92.93;98323.69;4171918;28;20686;-85
2022/08/29 03:38:49;;;;;;;12.30;10.07;;;;;;;16.68;91.36;98316.50;4184178;28;21225;-86
2022/08/29 03:40:52;;;;;;;12.60;9.33;;;;;;;16.67;91.82;98326.19;4152822;28;20636;-85
2022/08/29 03:43:02;;;;;;;10.93;9.07;;;;;;;16.67;91.84;98327.97;4173346;28;20639;-85
2022/08/29 03:45:07;;;;;;;11.27;9.30;;;;;;;16.62;90.96;98328.38;4177645;28;21047;-85
2022/08/29 03:47:10;;;;;;;9.80;8.80;;;;;;;16.59;91.60;98325.19;4172645;28;21205;-85
2022/08/29 03:49:14;;;;;;;10.10;8.90;;;;;;;16.56;91.32;98331.56;4187697;28;20660;-85
2022/08/29 03:51:18;;;;;;;12.30;9.20;;;;;;;16.54;92.46;98330.88;4170073;28;20724;-85
2022/08/29 03:53:21;;;;;;;11.70;8.90;;;;;;;16.54;92.27;98333.50;4175463;28;21212;-85
2022/08/29 03:55:26;;;;;;;11.40;8.70;;;;;;;16.53;91.33;98334.47;4162383;28;20865;-85
2022/08/29 03:57:31;;;;;;;10.50;9.10;;;;;;;16.54;91.83;98335.31;4211804;28;20626;-85
2022/08/29 03:59:34;;;;;;;11.70;9.50;;;;;;;16.53;92.37;98339.72;4168226;28;20631;-85
2022/08/29 04:01:38;;;;;;;10.80;8.87;;;;;;;16.53;92.37;98337.09;4170682;28;20619;-85
2022/08/29 04:03:41;;;;;;;11.77;9.30;;;;;;;16.53;91.33;98336.28;4173484;28;20624;-85
2022/08/29 04:05:44;;;;;;;10.37;9.27;;;;;;;16.50;91.37;98342.63;4162270;28;20732;-85
2022/08/29 04:07:54;;;;;;;10.23;9.10;;;;;;;16.50;93.33;98345.28;4174124;28;21081;-86
2022/08/29 04:09:58;;;;;;;10.20;8.40;;;;;;;16.48;92.39;98341.13;4158360;28;21247;-85
2022/08/29 04:12:03;;;;;;;9.20;8.30;;;;;;;16.46;91.46;98344.84;4167869;28;20620;-85
2022/08/29 04:14:06;;;;;;;11.67;9.07;;;;;;;16.45;92.39;98344.03;4171778;28;20629;-86
2022/08/29 04:16:10;;;;;;;11.13;9.00;;;;;;;16.44;91.50;98347.63;4175988;28;20629;-85
2022/08/29 04:18:13;;;;;;;9.57;8.57;;;;;;;16.43;92.03;98348.56;4171593;28;20635;-85
2022/08/29 04:20:24;;;;;;;10.90;9.53;;;;;;;16.43;93.23;98350.38;4203388;28;20677;-86
2022/08/29 04:22:27;;;;;;;13.30;9.73;;;;;;;16.41;93.41;98358.41;4178745;28;21241;-85
2022/08/29 04:24:31;;;;;;;11.27;9.30;;;;;;;16.39;91.46;98356.88;4171663;28;20635;-85
2022/08/29 04:26:35;;;;;;;10.33;8.60;;;;;;;16.36;93.30;98350.09;4168361;28;21222;-85
2022/08/29 04:28:41;;;;;;;12.40;9.50;;;;;;;16.34;91.66;98354.66;4166577;28;21071;-85
2022/08/29 04:30:46;;;;;;;13.20;9.50;;;;;;;16.32;92.37;98361.84;4174911;28;20663;-85
2022/08/29 04:32:53;;;;;;;10.13;9.13;;;;;;;16.30;92.83;98369.06;4173243;28;20631;-85
2022/08/29 04:34:57;;;;;;;10.97;9.17;;;;;;;16.27;92.21;98363.22;4210766;28;20675;-85
2022/08/29 04:37:00;;;;;;;11.83;9.27;;;;;;;16.27;91.75;98369.31;4168839;28;21174;-86
2022/08/29 04:39:04;;;;;;;10.50;9.37;;;;;;;16.28;92.74;98367.50;4175276;28;20640;-85
2022/08/29 04:41:09;;;;;;;12.83;9.40;;;;;;;16.26;91.27;98370.28;4170289;28;20625;-85
2022/08/29 04:43:12;;;;;;;10.97;9.17;;;;;;;16.24;93.28;98363.50;4170192;28;20672;-84
2022/08/29 04:45:18;;;;;;;11.33;9.20;;;;;;;16.24;91.62;98364.31;4175217;28;20689;-85
2022/08/29 04:47:21;;;;;;;11.77;9.27;;;;;;;16.25;91.80;98363.38;4172640;28;20627;-85
2022/08/29 04:49:24;;;;;;;11.20;8.43;;;;;;;16.26;92.21;98370.28;4207362;28;20629;-85
2022/08/29 04:51:28;;;;;;;9.40;8.40;;;;;;;16.26;93.36;98374.72;4177972;28;20701;-86
2022/08/29 04:53:31;;;;;;;10.17;8.27;;;;;;;16.28;92.19;98372.78;4190856;28;20626;-86
2022/08/29 04:55:34;;;;;;;10.60;9.50;;;;;;;16.29;91.35;98371.81;4173375;28;20623;-86
2022/08/29 04:57:38;;;;;;;11.13;8.60;;;;;;;16.22;91.24;98373.31;4175035;28;20864;-85
2022/08/29 04:59:41;;;;;;;10.27;9.17;;;;;;;16.18;91.17;98372.72;4175484;28;20627;-85
2022/08/29 05:01:46;;;;;;;12.50;9.43;;;;;;;16.16;91.67;98379.06;4173667;28;20624;-85
2022/08/29 05:03:50;;;;;;;10.97;9.60;;;;;;;16.18;91.62;98377.16;4175536;28;20629;-85
2022/08/29 05:05:56;;;;;;;12.17;10.30;;;;;;;16.17;91.55;98368.41;4177012;28;20675;-85
2022/08/29 05:07:59;;;;;;;10.37;8.83;;;;;;;16.20;91.31;98376.03;4160333;28;20653;-85
2022/08/29 05:10:06;;;;;;;10.10;9.10;;;;;;;16.27;91.06;98379.84;4156301;28;20636;-85
2022/08/29 05:12:09;;;;;;;9.97;8.97;;;;;;;16.39;91.48;98375.31;4173773;28;20667;-86
2022/08/29 05:14:12;;;;;;;10.93;9.63;;;;;;;16.51;91.53;98375.91;4174669;28;20613;-85
2022/08/29 05:16:17;;;;;;;12.30;9.30;;;;;;;16.66;93.05;98382.47;4177976;28;20639;-85
2022/08/29 05:18:22;;;;;;;11.27;9.57;;;;;;;16.82;91.22;98382.78;4161525;28;20636;-85
2022/08/29 05:20:25;;;;;;;12.80;9.63;;;;;;;16.99;90.73;98392.66;4177298;28;20632;-85
2022/08/29 05:22:28;;;;;;;12.80;9.13;;;;;;;17.15;90.50;98382.41;4174997;28;20628;-85
2022/08/29 05:24:31;;;;;;;9.90;8.63;;;;;;;17.29;89.55;98400.47;4175332;28;20627;-85
2022/08/29 05:26:37;;;;;;;9.97;8.20;;;;;;;17.43;89.49;98390.38;4178056;28;21024;-88
2022/08/29 05:28:40;;;;;;;10.33;9.10;;;;;;;17.58;88.74;98404.78;4176500;28;20632;-85
2022/08/29 05:30:43;;;;;;;10.97;9.07;;;;;;;17.71;88.91;98395.63;4174204;28;20668;-86
2022/08/29 05:32:46;;;;;;;10.97;8.53;;;;;;;17.85;88.30;98397.81;4175813;28;20681;-85
2022/08/29 05:34:51;;;;;;;10.37;9.00;;;;;;;17.99;87.30;98398.19;4177597;28;20628;-85
2022/08/29 05:36:54;;;;;;;12.50;8.80;;;;;;;18.10;86.44;98403.31;4175756;28;20635;-85
2022/08/29 05:38:57;;;;;;;8.90;8.00;;;;;;;18.21;85.49;98407.63;4174086;28;20631;-85
2022/08/29 05:41:01;;;;;;;10.83;9.00;;;;;;;18.29;85.95;98408.56;4177507;28;20625;-85
2022/08/29 05:43:04;;;;;;;10.10;9.00;;;;;;;18.43;85.60;98405.44;4172602;28;20660;-85
2022/08/29 05:45:08;;;;;;;9.40;8.27;;;;;;;18.55;84.96;98413.06;4174826;28;20615;-85
2022/08/29 05:47:13;;;;;;;11.00;8.50;;;;;;;18.69;84.61;98412.56;4175748;28;20625;-85
2022/08/29 05:49:16;;;;;;;10.93;7.93;;;;;;;18.87;84.55;98409.94;4176991;28;20648;-85
2022/08/29 05:51:23;;;;;;;9.83;8.37;;;;;;;19.02;83.89;98414.63;4175863;28;20655;-85
2022/08/29 05:53:26;;;;;;;11.40;8.60;;;;;;;19.14;83.58;98416.06;4173793;28;20686;-85
2022/08/29 05:55:30;;;;;;;9.43;7.90;;;;;;;19.30;82.19;98410.94;4174876;28;20665;-86
2022/08/29 05:57:33;;;;;;;12.67;8.83;;;;;;;19.41;81.33;98417.69;4175434;28;20712;-86
2022/08/29 05:59:37;;;;;;;11.93;9.53;;;;;;;19.53;81.60;98416.47;4177756;28;20620;-85
2022/08/29 06:01:40;;;;;;;10.10;8.57;;;;;;;19.62;80.73;98414.72;4177837;28;20668;-85
2022/08/29 06:03:43;;;;;;;11.33;8.17;;;;;;;19.74;80.89;98424.94;4176576;28;20660;-85
2022/08/29 06:05:50;;;;;;;10.67;9.10;;;;;;;19.89;80.33;98429.56;4177487;28;20978;-85
2022/08/29 06:07:54;;;;;;;9.37;8.30;;;;;;;20.04;79.47;98419.22;4174214;28;20670;-85
2022/08/29 06:09:57;;;;;;;9.43;8.10;;;;;;;20.21;78.80;98435.09;4175650;28;20639;-86
2022/08/29 06:12:06;;;;;;;10.17;8.47;;;;;;;20.36;79.05;98428.22;4176494;28;20696;-85
2022/08/29 06:14:09;;;;;;;10.20;8.33;;;;;;;20.49;79.49;98439.22;4171048;28;20674;-85
2022/08/29 06:16:13;;;;;;;11.00;8.43;;;;;;;20.61;78.54;98438.81;4175587;28;20646;-85
2022/08/29 06:18:16;;;;;;;8.63;7.47;;;;;;;20.71;77.66;98444.03;4173258;28;20622;-85
2022/08/29 06:20:24;;;;;;;11.00;8.50;;;;;;;20.82;77.87;98440.09;4158528;28;20668;-85
2022/08/29 06:22:27;;;;;;;9.30;8.30;;;;;;;20.96;78.09;98447.44;4156491;28;20637;-85
2022/08/29 06:24:33;;;;;;;10.20;8.03;;;;;;;21.09;77.25;98447.00;4172020;28;20624;-85
2022/08/29 06:26:36;;;;;;;9.07;8.07;;;;;;;21.22;76.41;98453.50;4175052;28;20612;-86
2022/08/29 06:28:40;;;;;;;12.20;8.70;;;;;;;21.33;75.98;98454.03;4172416;28;20642;-85
2022/08/29 06:30:43;;;;;;;9.53;7.50;;;;;;;21.47;76.34;98456.09;4156925;28;21210;-85
2022/08/29 06:32:46;;;;;;;9.60;8.27;;;;;;;21.61;75.47;98452.78;4174369;28;20668;-84
2022/08/29 06:34:49;;;;;;;9.27;8.10;;;;;;;21.73;75.10;98462.09;4173375;28;20635;-85
2022/08/29 06:36:52;;;;;;;9.77;8.53;;;;;;;21.87;75.25;98462.25;4160993;28;20610;-85
2022/08/29 06:38:56;;;;;;;9.53;8.33;;;;;;;21.97;74.57;98470.91;4176817;28;20692;-86
2022/08/29 06:41:03;;;;;;;9.00;7.27;;;;;;;22.12;74.73;98466.59;4161043;28;20628;-86
2022/08/29 06:43:06;;;;;;;12.27;9.00;;;;;;;22.32;74.60;98474.06;4174599;28;20647;-85
2022/08/29 06:45:10;;;;;;;8.93;8.00;;;;;;;22.47;74.45;98468.91;4158479;28;20638;-85
2022/08/29 06:47:13;;;;;;;12.23;7.77;;;;;;;22.58;73.85;98466.75;4176270;28;20625;-85
2022/08/29 06:49:18;;;;;;;12.00;8.23;;;;;;;22.68;74.27;98467.38;4174843;28;21254;-85
2022/08/29 06:51:21;;;;;;;10.60;8.50;;;;;;;22.83;72.48;98476.31;4172633;28;20632;-86
2022/08/29 06:53:25;;;;;;;9.40;7.47;;;;;;;22.81;72.48;98478.31;4177308;28;21089;-86
2022/08/29 06:55:34;;;;;;;8.60;7.70;;;;;;;22.89;72.51;98475.63;4177437;28;20620;-86
2022/08/29 06:57:43;;;;;;;10.90;8.30;;;;;;;23.04;71.37;98476.59;4176221;28;20626;-85
2022/08/29 06:59:46;;;;;;;9.23;7.50;;;;;;;23.13;70.46;98467.59;4175739;28;20625;-85
2022/08/29 07:01:49;;;;;;;10.53;7.90;;;;;;;23.29;69.57;98471.00;4178993;28;20631;-85
2022/08/29 07:03:53;;;;;;;10.37;7.27;;;;;;;23.38;71.35;98476.09;4163243;28;20634;-86
2022/08/29 07:05:56;;;;;;;8.47;7.17;;;;;;;23.51;69.95;98478.19;4176987;28;20897;-86
2022/08/29 07:07:59;;;;;;;7.80;7.00;;;;;;;23.62;70.22;98486.63;4175504;28;20657;-85
2022/08/29 07:10:02;;;;;;;8.47;7.10;;;;;;;23.71;70.31;98481.09;4180943;28;20684;-86
2022/08/29 07:12:06;;;;;;;12.90;8.30;;;;;;;23.78;69.59;98475.88;4179270;28;20697;-86
2022/08/29 07:14:11;;;;;;;9.20;7.30;;;;;;;23.87;69.03;98480.16;4179414;28;20719;-86
2022/08/29 07:16:17;;;;;;;9.80;7.40;;;;;;;24.05;70.33;98478.03;4178174;28;20630;-86
2022/08/29 07:18:21;;;;;;;9.30;6.83;;;;;;;24.25;68.64;98480.00;4180719;28;20643;-86
2022/08/29 07:20:24;;;;;;;8.93;8.07;;;;;;;24.48;68.49;98480.84;4180335;28;20626;-86
2022/08/29 07:22:27;;;;;;;11.10;8.03;;;;;;;24.65;66.68;98477.81;4179710;28;20842;-85
2022/08/29 07:24:30;;;;;;;8.20;7.07;;;;;;;24.75;67.39;98468.53;4177855;28;20623;-86
2022/08/29 07:26:37;;;;;;;10.47;7.30;;;;;;;24.90;65.88;98476.56;4179706;28;20727;-86
2022/08/29 07:28:40;;;;;;;8.80;7.20;;;;;;;25.04;67.20;98476.56;4176554;28;20634;-86
2022/08/29 07:30:50;;;;;;;8.00;6.83;;;;;;;25.25;67.58;98472.13;4176431;28;21041;-86
2022/08/29 07:32:53;;;;;;;13.83;7.67;;;;;;;25.39;64.97;98473.13;4180618;28;20681;-85
2022/08/29 07:34:56;;;;;;;7.50;6.70;;;;;;;25.46;67.15;98477.53;4179395;28;21051;-86
2022/08/29 07:36:59;;;;;;;9.50;6.97;;;;;;;25.63;66.79;98476.28;4176616;28;20637;-86
2022/08/29 07:39:06;;;;;;;10.00;6.20;;;;;;;25.73;65.62;98471.50;4180740;28;21023;-86
2022/08/29 07:41:13;;;;;;;7.83;6.60;;;;;;;25.86;64.59;98477.81;4203983;28;20778;-86
2022/08/29 07:43:16;;;;;;;8.47;6.60;;;;;;;25.95;65.14;98479.34;4161724;28;20624;-86
2022/08/29 07:45:23;;;;;;;10.10;6.10;;;;;;;26.00;63.92;98479.59;4179129;28;21035;-86
2022/08/29 07:47:27;;;;;;;7.80;6.87;;;;;;;26.06;63.94;98480.69;4162992;28;20879;-86
2022/08/29 07:49:32;;;;;;;8.50;7.03;;;;;;;26.09;64.07;98489.97;4161974;28;20634;-86
2022/08/29 07:51:43;;;;;;;10.63;7.30;;;;;;;26.13;63.94;98480.53;4173888;28;20617;-86
2022/08/29 07:53:46;;;;;;;12.00;7.13;;;;;;;26.21;64.19;98475.06;4170090;28;20768;-86
2022/08/29 07:55:50;;;;;;;9.00;6.53;;;;;;;26.30;63.96;98479.28;4179270;28;20633;-86
2022/08/29 07:57:53;;;;;;;8.03;6.47;;;;;;;26.41;63.03;98484.09;4174289;28;20619;-86
2022/08/29 07:59:56;;;;;;;9.00;6.33;;;;;;;26.51;62.15;98483.75;4177445;28;21215;-86
2022/08/29 08:01:59;;;;;;;7.63;6.73;;;;;;;26.51;62.54;98481.06;4176086;28;20976;-86
2022/08/29 08:04:04;;;;;;;9.57;6.67;;;;;;;26.60;62.54;98478.91;4176213;28;20641;-86
2022/08/29 08:06:09;;;;;;;7.73;6.83;;;;;;;26.66;62.61;98482.66;4173845;28;20630;-85
2022/08/29 08:08:13;;;;;;;10.57;7.07;;;;;;;26.69;62.27;98474.25;4177276;28;20658;-86
2022/08/29 08:10:19;;;;;;;9.60;6.90;;;;;;;26.78;62.39;98481.91;4171131;28;20731;-86
2022/08/29 08:12:24;;;;;;;8.77;7.23;;;;;;;26.90;62.71;98484.88;4177723;28;20627;-86
2022/08/29 08:14:27;;;;;;;7.17;6.43;;;;;;;27.00;62.08;98485.38;4162345;28;20634;-86
2022/08/29 08:16:37;;;;;;;7.17;6.20;;;;;;;26.97;63.18;98483.09;4195221;28;20646;-86
2022/08/29 08:18:47;;;;;;;8.53;6.67;;;;;;;26.99;63.04;98486.38;4174456;28;20623;-86
2022/08/29 08:20:52;;;;;;;10.50;7.23;;;;;;;27.06;62.80;98483.56;4178880;28;20635;-86
2022/08/29 08:22:55;;;;;;;8.80;6.93;;;;;;;27.17;62.67;98485.69;4178226;28;20662;-87
2022/08/29 08:24:58;;;;;;;10.37;7.23;;;;;;;27.28;63.03;98474.41;4162843;28;20626;-86
2022/08/29 08:27:01;;;;;;;7.60;6.33;;;;;;;27.35;63.18;98477.94;4175263;28;20626;-85
2022/08/29 08:29:04;;;;;;;9.73;6.93;;;;;;;27.44;62.45;98483.94;4178924;28;20620;-86
2022/08/29 08:31:09;;;;;;;7.43;6.30;;;;;;;27.46;62.57;98488.09;4175004;28;20627;-85
2022/08/29 08:33:12;;;;;;;12.53;7.10;;;;;;;27.51;62.96;98485.66;4172352;28;20663;-85
2022/08/29 08:35:18;;;;;;;8.97;7.07;;;;;;;27.52;61.25;98481.97;4175624;28;20635;-85
2022/08/29 08:37:26;;;;;;;8.03;6.27;;;;;;;27.65;60.89;98490.06;4188381;28;20669;-85
2022/08/29 08:39:32;;;;;;;9.90;6.83;;;;;;;27.72;61.07;98486.34;4176106;28;20627;-85
2022/08/29 08:41:44;;;;;;;10.30;6.70;;;;;;;27.75;61.57;98491.31;4173752;28;20644;-85
2022/08/29 08:43:50;;;;;;;8.90;6.87;;;;;;;27.80;61.10;98490.69;4179031;28;20625;-85
2022/08/29 08:45:55;;;;;;;9.13;6.27;;;;;;;27.86;60.62;98489.88;4174759;28;20629;-87
2022/08/29 08:48:03;;;;;;;7.27;6.57;;;;;;;27.94;61.11;98490.53;4177123;28;20625;-87
2022/08/29 08:50:12;;;;;;;7.70;6.70;;;;;;;28.07;61.46;98491.41;4160886;28;20636;-87
2022/08/29 08:52:19;;;;;;;8.13;7.13;;;;;;;28.17;60.82;98489.16;4174799;28;20732;-88
2022/08/29 08:54:25;;;;;;;9.47;7.03;;;;;;;28.29;60.79;98492.88;4172257;28;20660;-87
2022/08/29 08:56:32;;;;;;;9.67;7.70;;;;;;;28.33;60.81;98485.25;4176696;28;20630;-87
2022/08/29 08:58:43;;;;;;;7.40;6.60;;;;;;;28.37;59.84;98490.03;4167485;28;20626;-87
2022/08/29 09:00:49;;;;;;;10.10;6.43;;;;;;;28.42;60.50;98487.53;4194540;28;20704;-87
2022/08/29 09:03:02;;;;;;;8.93;7.50;;;;;;;28.43;59.69;98485.66;4177339;28;20636;-85
2022/08/29 09:05:31;;;;;;;7.87;6.93;;;;;;;28.46;59.49;98487.94;4175894;28;20636;-87
2022/08/29 09:07:45;;;;;;;9.33;7.10;;;;;;;28.55;60.92;98480.31;4175251;28;20641;-87
2022/08/29 09:10:01;;;;;;;8.20;7.07;;;;;;;28.63;59.57;98484.63;4177231;28;20635;-85
2022/08/29 09:12:15;;;;;;;9.43;6.80;;;;;;;28.71;59.14;98481.75;4171154;28;20691;-85
2022/08/29 09:14:32;;;;;;;8.00;6.83;;;;;;;28.74;59.82;98475.97;4177984;28;20668;-85
2022/08/29 09:16:39;;;;;;;8.53;6.93;;;;;;;28.76;59.62;98484.63;4176394;28;20667;-85
2022/08/29 09:18:43;;;;;;;9.93;6.60;;;;;;;28.76;60.58;98485.50;4176111;28;20618;-85
2022/08/29 09:20:56;;;;;;;7.90;6.70;;;;;;;28.92;60.33;98487.72;4175123;28;21043;-85
2022/08/29 09:23:02;;;;;;;8.17;6.97;;;;;;;29.02;59.43;98480.06;4174007;28;20629;-85
2022/08/29 09:25:09;;;;;;;8.47;7.57;;;;;;;29.11;59.38;98482.31;4177744;28;21219;-86
2022/08/29 09:27:18;;;;;;;7.73;6.93;;;;;;;29.08;59.54;98469.28;4173665;28;20626;-85
2022/08/29 09:29:21;;;;;;;8.73;6.77;;;;;;;29.09;59.08;98483.53;4178409;28;20651;-85
2022/08/29 09:31:26;;;;;;;8.20;6.93;;;;;;;29.08;59.09;98480.03;4163580;28;20985;-84
2022/08/29 09:33:40;;;;;;;7.80;7.00;;;;;;;29.05;58.92;98479.66;4178944;28;20975;-85
2022/08/29 09:35:47;;;;;;;9.43;8.50;;;;;;;29.06;58.72;98484.81;4158727;28;20958;-85
2022/08/29 09:38:02;;;;;;;11.73;6.90;;;;;;;29.06;59.03;98474.06;4176906;28;20658;-85
2022/08/29 09:40:11;;;;;;;10.33;7.53;;;;;;;29.10;57.73;98477.97;4175863;28;20648;-84
2022/08/29 09:42:21;;;;;;;9.70;7.70;;;;;;;29.03;58.22;98474.47;4162573;28;20657;-85
2022/08/29 09:44:27;;;;;;;9.20;7.13;;;;;;;29.04;58.82;98468.03;4174957;28;20615;-85
2022/08/29 09:46:30;;;;;;;8.00;6.70;;;;;;;29.05;59.63;98466.22;4177287;28;20643;-85